x

Virginia Beach 64 Nm East Of Virginia Beach, Va (44014) Wave Buoy

11:50pm - Fri 27th Feb 2015 All times are EST. -5 hours from GMT.

  • Sig Wave height 6.2ft
  • Swell Direction
  • Peak Period 11s
  • Average Period 6s
  • Wind
    20mph, 25mph gusts
  • Sea Temp 58°f
  • Air Temp 39°f
  • Sea Pressure 1034.4mb
  • Virginia Beach 64 Nm East Of Virginia Beach, Va
  • Virginia Beach 64 Nm East Of Virginia Beach, Va

More Historic Weather Station data

Upgrade to MSW Pro to gain access to the past 30 days of data for over 8000 Wavebouys and Weather Stations around the globe.

Join Pro

Comparision Forecast

View Surf forecast
   
Fri 02/27 11:50pm 6ft 11s 6s 20 25 mph 1034.4mb 58f 39f
10:50pm 6.5ft 11s 6s 20 27 mph 1033.8mb 58f 39f
9:50pm 6.5ft 9s 6s 20 25 mph 1033.3mb 59f 39f
8:50pm 6.5ft 10s 6s 20 25 mph 1032.9mb 59f 39f
7:50pm 6ft 11s 6s 20 25 mph 1031.9mb 59f 40f
6:50pm 5.5ft 10s 6s 18 25 mph 1031.1mb 59f 40f
5:50pm 6ft 11s 6s 18 22 mph 1030.3mb 61f 40f
4:50pm 6ft 9s 6s 18 22 mph 1029.5mb 61f 40f
3:50pm 6ft 8s 6s 18 22 mph 1029.1mb 61f 41f
2:50pm 6ft 11s 6s 20 25 mph 1028.4mb 61f 41f
1:50pm 6.5ft 9s 6s 20 25 mph 1027.3mb 60f 41f
12:50pm 7ft 9s 6s 16 22 mph 1027mb 60f 42f
11:50am 7ft 11s 7s 18 20 mph 1026.9mb 60f 42f
10:50am 7.5ft 11s 7s 18 22 mph 1026.6mb 60f 42f
9:50am 8ft 11s 7s 18 22 mph 1026.4mb 59f 42f
8:50am 8ft 11s 7s 18 25 mph 1026.1mb 58f 42f
7:50am 8ft 10s 7s 18 25 mph 1024.5mb 58f 42f
6:50am 9ft 12s 7s 20 25 mph 1023.3mb 59f 42f
5:50am 9ft 10s 7s 20 25 mph 1022.5mb 60f 42f
4:50am 10ft 10s 7s 20 27 mph 1021.6mb 60f 41f
3:50am 10ft 10s 7s 20 25 mph 1020.6mb 60f 40f
2:50am 10.5ft 10s 8s 20 25 mph 1020.1mb 60f 41f
1:50am 10ft 10s 7s 20 27 mph 1019.6mb 60f 42f
12:50am 10ft 11s 7s 20 27 mph 1018.9mb 60f 42f
Thu 02/26 11:50pm 11ft 10s 7s 20 27 mph 1018.2mb 60f 42f
10:50pm 13ft 10s 7s 22 29 mph 1017.5mb 60f 42f
9:50pm 13ft 10s 7s 29 34 mph 1016.5mb 59f 42f
8:50pm 13ft 11s 7s 31 38 mph 1015.6mb 58f 42f
7:50pm 13.5ft 11s 7s 29 36 mph 1015.1mb 58f 43f
6:50pm 13.5ft 10s 7s 29 34 mph 1013.5mb 58f 44f
5:50pm 15.5ft 9s 8s 29 36 mph 1012mb 57f 44f
4:50pm 15.5ft 10s 8s 31 38 mph 1010mb 57f 44f
3:50pm 15.5ft 9s 8s 29 36 mph 1008.4mb 57f 46f
2:50pm 14ft 9s 7s 29 38 mph 1006.8mb 57f 47f
1:50pm 15.5ft 9s 7s 34 38 mph 1004.8mb 56f 47f
12:50pm 15ft 9s 7s 34 43 mph 1003.3mb 53f 47f
11:50am 15ft 9s 7s 38 45 mph 1001.6mb 52f 47f
10:50am 12.5ft 8s 6s 40 47 mph 1000.9mb 52f 46f
9:50am 11.5ft 8s 6s 36 45 mph 1001.4mb 53f 45f
8:50am 10ft 8s 6s 36 45 mph 1000.7mb 53f 46f
7:50am 9.5ft 7s 6s 34 43 mph 1000.7mb 52f 47f
6:50am 8.5ft 6s 5s 34 43 mph 998.3mb 52f 47f
5:50am 8ft 6s 5s 31 40 mph 1000.3mb 52f 47f
4:50am 7ft 6s 5s 36 43 mph 1002.7mb 52f 44f
3:50am 6ft 6s 5s 31 38 mph 1006.1mb 52f 41f
2:50am 5.5ft 5s 5s 29 36 mph 1008mb 52f 41f
1:50am 4.5ft 8s 5s 22 29 mph 1010.9mb 52f 41f
12:50am 3.5ft 9s 5s 20 25 mph 1012.3mb 52f 41f
Wed 02/25 11:50pm 3.5ft 9s 6s 13 22 mph 1012.4mb 53f 44f
10:50pm 3.5ft 8s 7s 13 20 mph 1012.9mb 53f 45f
9:50pm 3.5ft 8s 7s 9 13 mph 1015.7mb 53f 44f
8:50pm 3.5ft 9s 7s 7 11 mph 1015mb 53f 43f
7:50pm 3.5ft 9s 7s 9 13 mph 1015mb 52f 42f
6:50pm 3.5ft 9s 6s 9 11 mph 1015mb 52f 41f
5:50pm 3.5ft 9s 6s 4 9 mph 1014.6mb 52f 41f
4:50pm 3ft 8s 5s 4 9 mph 1014.2mb 52f 40f
3:50pm 3.5ft 8s 5s 7 9 mph 1014.2mb 52f 40f
2:50pm 3.5ft 9s 5s 13 18 mph 1014.2mb 52f 40f
1:50pm 3.5ft 11s 5s 13 16 mph 1014.1mb 52f 40f
12:50pm 3.5ft 11s 5s 9 13 mph 1014.8mb 51f 39f
11:50am 4ft 5s 5s 11 13 mph 1014.9mb 51f 38f
10:50am 4ft 5s 5s 11 16 mph 1015.4mb 51f 37f
9:50am 4.5ft 5s 5s 16 18 mph 1014.2mb 50f 37f
8:50am 4.5ft 5s 5s 18 22 mph 1013.2mb 50f 36f
7:50am 4.5ft 5s 4s 22 27 mph 1012mb 50f 36f
6:50am 4.5ft 4s 5s 18 22 mph 1012.2mb 50f 35f
5:50am 4.5ft 10s 5s 22 27 mph 1011.1mb 50f 35f
4:50am 4.5ft 11s 5s 22 27 mph 1009.5mb 50f 36f
3:50am 4.5ft 4s 5s 22 25 mph 1008.7mb 50f 36f
2:50am 4.5ft 10s 5s 22 29 mph 1008.6mb 51f 38f
1:50am 4.5ft 9s 5s 25 29 mph 1008.4mb 52f 40f
12:50am 4.5ft 9s 5s 18 22 mph 1008.3mb 52f 42f
Tue 02/24 11:50pm 4.5ft 9s 6s 16 18 mph 1008.6mb 53f 43f
10:50pm 4.5ft 10s 5s 18 20 mph 1008.7mb 51f 43f
9:50pm 4.5ft 10s 5s 13 18 mph 1010.8mb 51f 42f
8:50pm 4.5ft 7s 5s 13 16 mph 1011.8mb 50f 42f
7:50pm 4ft 7s 5s 16 20 mph 1012.8mb 51f 41f
6:50pm 4.5ft 7s 6s 16 20 mph 1013.3mb 50f 40f
5:50pm 4.5ft 7s 6s 13 16 mph 1014.2mb 49f 40f
4:50pm 5ft 7s 6s 11 13 mph 1015.5mb 49f 38f
3:50pm 5ft 8s 6s 13 16 mph 1016.6mb 49f 36f
2:50pm 5.5ft 8s 6s 13 18 mph 1017.7mb 49f 35f
1:50pm 6ft 8s 6s 13 16 mph 1019mb 50f 34f
12:50pm 6ft 8s 6s 11 13 mph 1020.6mb 51f 35f
11:50am 7ft 8s 7s 11 18 mph 1021.8mb 51f 35f
10:50am 7ft 8s 6s 13 18 mph 1022.4mb 51f 35f
9:50am 6ft 8s 6s 13 16 mph 1023.7mb 49f 34f
8:50am 6ft 7s 6s 11 16 mph 1024.9mb 48f 33f
7:50am 6ft 8s 6s 13 18 mph 1025.2mb 48f 33f
6:50am 6.5ft 8s 6s 18 22 mph 1024.5mb 48f 33f
5:50am 7ft 8s 5s 18 25 mph 1024.7mb 49f 32f